Flight Track Log - Related Links

Times and Time Zones

All times are in EDT time to prevent confusion due to time zone crossing. See the AAL1138 flight status page for this flight to view local times or setup timezone preferences in your user account.

Time Position Orientation Groundspeed Altitude Reporting Facility
EDT Latitude Longitude Course Direction KTS MPH feet Rate Location/Type
Tue 04:24:00 PM 18.6853 -69.8371 328° Northwest  Level FlightAware Approximate
Tue 04:25:00 PM 18.7705 -69.8933 328° Northwest  Level FlightAware Approximate
Tue 04:26:00 PM 18.8557 -69.9495 328° Northwest  Level FlightAware Approximate
Tue 04:27:00 PM 18.9408 -70.0058 328° Northwest  Level FlightAware Approximate
Tue 04:28:00 PM 19.0259 -70.0622 328° Northwest  Level FlightAware Approximate
Tue 04:29:00 PM 19.1111 -70.1186 328° Northwest  Level FlightAware Approximate
Tue 04:30:00 PM 19.1887 -70.1748 325° Northwest  Level FlightAware Approximate
Tue 04:31:00 PM 19.2754 -70.2398 325° Northwest  Level FlightAware Approximate
Tue 04:32:00 PM 19.3630 -70.3034 327° Northwest  Level FlightAware Approximate
Tue 04:33:00 PM 19.4525 -70.3642 327° Northwest  Level FlightAware Approximate
Tue 04:34:00 PM 19.5419 -70.4249 327° Northwest  Level FlightAware Approximate
Tue 04:35:00 PM 19.6314 -70.4858 327° Northwest  Level FlightAware Approximate
Tue 04:36:00 PM 19.7208 -70.5467 327° Northwest  Level FlightAware Approximate
Tue 04:37:00 PM 19.8069 -70.6127 323° Northwest  Level FlightAware Approximate
Tue 04:37:40 PM 19.5969 -70.4494 322° Northwest 463 533 36,900  Level Miami Center
Tue 04:38:00 PM 19.8915 -70.6810 323° Northwest  Level FlightAware Approximate
Tue 04:38:40 PM 19.6872 -70.5222 323° Northwest 443 510 38,000  Level Miami Center
Tue 04:39:00 PM 19.9761 -70.7495 323° Northwest  Level FlightAware Approximate
Tue 04:39:40 PM 19.7800 -70.5997 322° Northwest 431 496 38,000  Level Miami Center
Tue 04:40:00 PM 20.0606 -70.8180 323° Northwest  Level FlightAware Approximate
Tue 04:40:40 PM 19.8744 -70.6747 323° Northwest 426 490 38,000  Level Miami Center
Tue 04:41:00 PM 20.1445 -70.8874 322° Northwest  Level FlightAware Approximate
Tue 04:41:40 PM 19.9650 -70.7500 322° Northwest 421 484 38,000  Level Miami Center
Tue 04:42:00 PM 20.2279 -70.9575 322° Northwest  Level FlightAware Approximate
Tue 04:42:40 PM 20.0536 -70.8297 320° Northwest 415 478 38,000  Level Miami Center
Tue 04:43:40 PM 20.1436 -70.8986 324° Northwest 410 472 38,000  Level Miami Center
Tue 04:44:40 PM 20.2339 -70.9722 323° Northwest 410 472 38,000  Level Miami Center
Tue 04:45:40 PM 20.3244 -71.0500 321° Northwest 410 472 38,000  Level Miami Center
Tue 04:46:40 PM 20.4106 -71.1261 320° Northwest 410 472 38,000  Level Miami Center
Tue 04:47:40 PM 20.4744 -71.2206 306° West 404 465 38,000  Level Miami Center
Tue 04:48:40 PM 20.5383 -71.3175 305° West 399 459 38,000  Level Miami Center
Tue 04:49:40 PM 20.5983 -71.4169 303° West 399 459 38,000  Level Miami Center
Tue 04:50:40 PM 20.6578 -71.5144 303° West 399 459 38,000  Level Miami Center
Tue 04:51:40 PM 20.7175 -71.6117 303° West 399 459 38,000  Level Miami Center
Tue 04:52:40 PM 20.7792 -71.7092 304° West 399 459 38,000  Level Miami Center
Tue 04:53:40 PM 20.8408 -71.8044 305° West 399 459 38,000  Level Miami Center
Tue 04:54:40 PM 20.8981 -71.9022 302° West 394 453 38,000  Level Miami Center
Tue 04:56:40 PM 21.0189 -72.0956 304° West 399 459 38,000  Level Miami Center
Tue 04:57:40 PM 21.0781 -72.1911 304° West 394 453 38,000  Level Miami Center
Tue 04:58:40 PM 21.1375 -72.2892 303° West 394 453 38,000  Level Miami Center
Tue 04:59:40 PM 21.1989 -72.3872 304° West 394 453 38,000  Level Miami Center
Tue 05:00:40 PM 21.2578 -72.4833 303° West 394 453 38,000  Level Miami Center
Tue 05:01:40 PM 21.3125 -72.5728 303° West 394 453 38,000  Level Miami Center
Tue 05:02:40 PM 21.3717 -72.6689 303° West 394 453 38,000  Level Miami Center
Tue 05:03:40 PM 21.4325 -72.7672 304° West 394 453 38,000  Level Miami Center
Tue 05:04:40 PM 21.4894 -72.8658 302° West 394 453 38,000  Level Miami Center
Tue 05:05:40 PM 21.5506 -72.9644 304° West 399 459 38,000  Level Miami Center
Tue 05:06:40 PM 21.6114 -73.0631 304° West 399 459 38,000  Level Miami Center
Tue 05:07:40 PM 21.6700 -73.1597 303° West 394 453 38,000  Level Miami Center
Tue 05:08:40 PM 21.7308 -73.2586 304° West 394 453 38,000  Level Miami Center
Tue 05:09:40 PM 21.7894 -73.3553 303° West 394 453 38,000  Level Miami Center
Tue 05:10:40 PM 21.8461 -73.4544 302° West 394 453 38,000  Level Miami Center
Tue 05:11:40 PM 21.9067 -73.5558 303° West 394 453 38,000  Level Miami Center
Tue 05:12:40 PM 21.9694 -73.6528 305° West 400 460 38,000  Level Miami Center
Tue 05:13:40 PM 22.0175 -73.7525 297° West 400 460 38,000  Level Miami Center
Tue 05:14:40 PM 22.0758 -73.8519 302° West 394 453 38,000  Level Miami Center
Tue 05:15:40 PM 22.1361 -73.9492 304° West 394 453 38,000  Level Miami Center
Tue 05:16:40 PM 22.1964 -74.0508 303° West 399 459 38,000  Level Miami Center
Tue 05:17:40 PM 22.2567 -74.1483 304° West 399 459 38,000  Level Miami Center
Tue 05:18:40 PM 22.3150 -74.2481 302° West 399 459 38,000  Level Miami Center
Tue 05:19:40 PM 22.3750 -74.3458 304° West 399 459 38,000  Level Miami Center
Tue 05:20:40 PM 22.4331 -74.4481 302° West 399 459 38,000  Level Miami Center
Tue 05:21:40 PM 22.4911 -74.5481 302° West 399 459 38,000  Level Miami Center
Tue 05:22:40 PM 22.5511 -74.6481 303° West 399 459 38,000  Level Miami Center
Tue 05:23:40 PM 22.6089 -74.7461 303° West 399 459 38,000  Level Miami Center
Tue 05:24:40 PM 22.6667 -74.8419 303° West 393 452 38,000  Level Miami Center
Tue 05:25:40 PM 22.7242 -74.9403 302° West 393 452 38,000  Level Miami Center
Tue 05:26:40 PM 22.7797 -75.0408 301° West 393 452 38,000  Level Miami Center
Tue 05:27:40 PM 22.8394 -75.1392 303° West 388 447 38,000  Level Miami Center
Tue 05:28:40 PM 22.8969 -75.2397 302° West 388 447 38,000  Level Miami Center
Tue 05:29:40 PM 22.9544 -75.3361 303° West 388 447 38,000  Level Miami Center
Tue 05:30:40 PM 23.0119 -75.4369 302° West 383 441 38,000  Level Miami Center
Tue 05:31:40 PM 23.0692 -75.5333 303° West 383 441 38,000  Level Miami Center
Tue 05:32:40 PM 23.1264 -75.6344 302° West 383 441 38,000  Level Miami Center
Tue 05:33:40 PM 23.1814 -75.7333 301° West 383 441 38,000  Level Miami Center
Tue 05:34:40 PM 23.2386 -75.8325 302° West 383 441 38,000  Level Miami Center
Tue 05:35:40 PM 23.3019 -75.9450 302° West 383 441 38,000  Level Miami Center
Tue 05:36:40 PM 23.3592 -76.0442 302° West 383 441 38,000  Level Miami Center
Tue 05:37:40 PM 23.4181 -76.1433 303° West 383 441 38,000  Level Miami Center
Tue 05:38:40 PM 23.4750 -76.2428 302° West 383 441 38,000  Level Miami Center
Tue 05:39:40 PM 23.5317 -76.3400 302° West 383 441 38,000  Level Miami Center
Tue 05:40:40 PM 23.5886 -76.4417 301° West 383 441 38,000  Level Miami Center
Tue 05:41:40 PM 23.6453 -76.5392 302° West 383 441 38,000  Level Miami Center
Tue 05:42:40 PM 23.7017 -76.6389 302° West 383 441 38,000  Level Miami Center
Tue 05:43:40 PM 23.7561 -76.7386 301° West 383 441 38,000  Level Miami Center
Tue 05:44:40 PM 23.8106 -76.8361 301° West 383 441 38,000  Level Miami Center
Tue 05:45:40 PM 23.8692 -76.9361 303° West 383 441 38,000  Level Miami Center
Tue 05:46:40 PM 23.9214 -77.0361 300° West 383 441 38,000  Level Miami Center
Tue 05:47:40 PM 23.9797 -77.1342 303° West 388 447 38,000  Level Miami Center
Tue 05:48:40 PM 24.0339 -77.2344 301° West 388 447 38,000  Level Miami Center
Tue 05:49:40 PM 24.0900 -77.3300 303° West 382 440 38,000  Level Miami Center
Tue 05:50:40 PM 24.1439 -77.4328 300° West 382 440 38,000  Level Miami Center
Tue 05:51:40 PM 24.2000 -77.5378 300° West 382 440 38,000  Level Miami Center
Tue 05:52:40 PM 24.2558 -77.6339 303° West 382 440 38,000  Level Miami Center
Tue 05:53:40 PM 24.3117 -77.7392 300° West 382 440 38,000  Level Miami Center
Tue 05:54:40 PM 24.3550 -77.8169 301° West 382 440 38,000  Level Miami Center
Tue 05:55:40 PM 24.4169 -77.9292 301° West 382 440 38,000  Level Miami Center
Tue 05:56:40 PM 24.4728 -78.0303 301° West 382 440 38,000  Level Miami Center
Tue 05:57:40 PM 24.5306 -78.1311 302° West 382 440 38,000  Level Miami Center
Tue 05:58:40 PM 24.5881 -78.2347 301° West 382 440 38,000  Level Miami Center
Tue 05:59:40 PM 24.6394 -78.3336 300° West 382 440 38,000  Level Miami Center
Tue 06:00:40 PM 24.6947 -78.4369 301° West 382 440 38,000  Level Miami Center
Tue 06:01:40 PM 24.7500 -78.5386 301° West 382 440 38,000  Level Miami Center
Tue 06:02:40 PM 24.8053 -78.6378 302° West 382 440 38,000 -100 Level Miami Center
Tue 06:03:40 PM 24.8603 -78.7414 300° West 382 440 37,800 -200 Descending Miami Center
Tue 06:04:40 PM 24.9156 -78.8408 302° West 382 440 37,600 -1,200 Descending Miami Center
Tue 06:05:40 PM 24.9664 -78.9356 301° West 382 440 35,400 -3,550 Descending Miami Center
Tue 06:06:40 PM 25.0275 -79.0467 301° West 376 433 30,500 -4,200 Descending Miami Center
Tue 06:07:40 PM 25.0886 -79.1603 301° West 404 465 27,000 -3,000 Descending Miami Center
Tue 06:08:40 PM 25.1472 -79.2717 300° West 420 483 24,500 -2,550 Descending Miami Center
Tue 06:09:40 PM 25.2083 -79.3783 302° West 420 483 21,900 -2,850 Descending Miami Center
Tue 06:10:40 PM 25.2628 -79.4828 300° West 415 478 18,800 -3,200 Descending Miami Center
Tue 06:11:40 PM 25.3153 -79.5806 301° West 397 457 15,500 -2,976 Descending Miami Center
Tue 06:12:45 PM 25.3658 -79.6806 299° West 319 367 12,600 -1,667 Descending Miami Center
Tue 06:13:46 PM 25.4103 -79.7622 301° West 307 353 12,000 -313 Descending Miami Center
Tue 06:14:40 PM 25.4650 -79.8394 308° West 329 379 12,000  Level Miami Center
Tue 06:15:40 PM 25.5136 -79.9119 307° West 329 379 12,000 -150 Level Miami Center
Tue 06:16:40 PM 25.5683 -79.9939 307° West 334 384 11,700 -900 Descending Miami Center
Tue 06:17:40 PM 25.6208 -80.0736 306° West 329 379 10,200 -1,150 Descending Miami Center
Tue 06:18:40 PM 25.6653 -80.1508 303° West 318 366 9,400 -900 Descending Miami Center
Tue 06:19:40 PM 25.6864 -80.2322 286° West 289 333 8,400 -889 Descending Miami Center
Tue 06:20:55 PM 25.7067 -80.3411 282° West 236 272 7,400 -882 Descending Miami Center
Tue 06:21:56 PM 25.7050 -80.4125 269° West 227 261 6,400 -1,082 Descending Miami Center
Tue 06:22:57 PM 25.7014 -80.4817 267° West 225 259 5,200 -1,171 Descending Miami Center
Tue 06:23:59 PM 25.7250 -80.5331 297° West 208 239 4,000 -1,161 Descending Miami Center

Login

Don't have an account? Register now (free) for customized features, flight alerts, and more!